Terminal Aerodrome Forecast
Issued by NWS

Home | Current Version | Previous Version | Text Only | Print | Product List | Glossary On
Versions: 1 2 3 4 5 6 7 8 9 10 11 12 13 14 15 16 17 18 19 20 21 22 23 24 25
000
FTUS43 KLOT 092320
TAFMDW
TAF
KMDW 092320Z 1000/1024 27009KT P6SM SCT035 BKN120
     FM101500 25009KT P6SM BKN070
      TEMPO 1021/1022 2SM -SN BKN020
     FM102200 19007KT 1 1/2SM -SN SCT010 OVC020
     FM102300 17007KT 3/4SM -SN BKN008 OVC012=

USA.gov is the U.S. government's official web portal to all federal, state and local government web resources and services.